Time;durP1;ratioP1;P1;durP2;ratioP2;P2;SDS_P1;SDS_P2;PMS_P1;PMS_P2;Temp;Humidity;BMP_temperature;BMP_pressure;BME280_temperature;BME280_humidity;BME280_pressure;Samples;Min_cycle;Max_cycle;Signal;HPM_P1;HPM_P2
2022/03/08 05:55:56;;;;;;;5.80;4.00;;;;;;;;;;5013825;28;20284;-90
2022/03/08 05:58:23;;;;;;;4.80;4.07;;;;;;;;;;5004895;28;20250;-90
2022/03/08 06:00:51;;;;;;;6.53;4.37;;;;;;;;;;5009318;28;20225;-90
2022/03/08 06:03:25;;;;;;;7.57;4.47;;;;;;;;;;5006821;28;20227;-90
2022/03/08 06:05:52;;;;;;;5.23;4.07;;;;;;;;;;5010130;28;20210;-90
2022/03/08 10:21:57;;;;;;;4.67;4.13;;;;;;;;;;4999336;28;20575;-91
2022/03/08 10:24:28;;;;;;;4.60;3.47;;;;;;;;;;5003752;28;20206;-92
2022/03/08 10:26:57;;;;;;;5.37;3.30;;;;;;;;;;5005655;28;20217;-91
2022/03/08 10:29:25;;;;;;;6.73;4.10;;;;;;;;;;4984063;28;20290;-92
2022/03/08 10:32:05;;;;;;;4.33;3.83;;;;;;;;;;4988530;28;20204;-92
2022/03/08 10:34:33;;;;;;;5.63;3.80;;;;;;;;;;5000542;28;20196;-91
2022/03/08 13:33:43;;;;;;;5.50;4.97;;;;;;;;;;5006905;28;20222;-90
2022/03/08 13:36:11;;;;;;;7.10;5.10;;;;;;;;;;4993637;28;20396;-91
2022/03/08 13:38:39;;;;;;;5.53;4.83;;;;;;;;;;5008777;28;20711;-91
2022/03/08 13:41:07;;;;;;;7.63;4.93;;;;;;;;;;5009006;28;20687;-91
2022/03/08 13:43:35;;;;;;;6.27;4.90;;;;;;;;;;5008823;28;20233;-91
2022/03/08 21:58:44;;;;;;;8.30;5.47;;;;;;;;;;5030654;28;20214;-90
2022/03/08 22:01:12;;;;;;;10.50;5.53;;;;;;;;;;5032375;28;20222;-89
2022/03/08 22:03:39;;;;;;;11.20;6.13;;;;;;;;;;5032006;28;20237;-91
2022/03/08 22:06:07;;;;;;;9.07;5.80;;;;;;;;;;5033003;28;20241;-90
2022/03/08 22:08:36;;;;;;;11.70;6.03;;;;;;;;;;5032573;28;20684;-91
2022/03/08 22:11:03;;;;;;;9.33;5.90;;;;;;;;;;5032044;28;20226;-92
2022/03/08 22:13:31;;;;;;;9.17;6.20;;;;;;;;;;5032007;28;20206;-91
2022/03/08 22:15:59;;;;;;;11.60;6.07;;;;;;;;;;5032419;28;20222;-91
2022/03/08 22:18:27;;;;;;;8.67;5.60;;;;;;;;;;5032750;28;20558;-91
2022/03/08 22:20:54;;;;;;;8.63;5.67;;;;;;;;;;5032027;28;20631;-91
2022/03/08 22:23:21;;;;;;;7.10;5.00;;;;;;;;;;5031997;28;20617;-91
2022/03/08 22:25:49;;;;;;;10.33;5.63;;;;;;;;;;5032594;28;20657;-91
2022/03/08 22:28:16;;;;;;;10.73;6.30;;;;;;;;;;5036561;28;20260;-91
2022/03/08 22:30:45;;;;;;;12.13;6.93;;;;;;;;;;5035364;28;20256;-92
2022/03/08 22:33:13;;;;;;;7.80;5.10;;;;;;;;;;5036075;28;20206;-92
2022/03/08 22:35:41;;;;;;;9.50;5.77;;;;;;;;;;5035817;28;20260;-91
2022/03/08 22:38:08;;;;;;;8.10;5.80;;;;;;;;;;5036204;28;20210;-92
2022/03/08 22:40:36;;;;;;;7.67;5.43;;;;;;;;;;5036247;28;20893;-91
2022/03/08 22:43:03;;;;;;;11.70;6.33;;;;;;;;;;5036318;28;20284;-91
2022/03/08 22:45:30;;;;;;;7.00;4.90;;;;;;;;;;5036335;28;20203;-91
2022/03/08 22:47:57;;;;;;;9.77;5.70;;;;;;;;;;5035966;28;20288;-92
2022/03/08 22:53:11;;;;;;;8.60;5.80;;;;;;;;;;5035339;28;20691;-91
2022/03/08 22:55:38;;;;;;;8.03;5.77;;;;;;;;;;5035509;28;20264;-91
2022/03/08 22:58:06;;;;;;;9.63;6.43;;;;;;;;;;5035422;28;20257;-92
2022/03/08 23:00:35;;;;;;;11.37;6.17;;;;;;;;;;5035929;28;20211;-91
2022/03/08 23:03:03;;;;;;;8.07;5.87;;;;;;;;;;5035433;28;20210;-92
2022/03/08 23:05:32;;;;;;;8.90;5.53;;;;;;;;;;5035666;28;20615;-92
2022/03/08 23:07:59;;;;;;;9.83;6.60;;;;;;;;;;5035357;28;20211;-91
2022/03/08 23:10:27;;;;;;;11.30;6.77;;;;;;;;;;5035226;28;20264;-92
2022/03/08 23:12:54;;;;;;;11.00;6.57;;;;;;;;;;5035115;28;20210;-92
2022/03/08 23:15:21;;;;;;;10.67;6.17;;;;;;;;;;5035382;28;20202;-91
2022/03/08 23:17:49;;;;;;;10.40;6.70;;;;;;;;;;5035192;28;20234;-91
2022/03/08 23:20:16;;;;;;;9.97;6.50;;;;;;;;;;5035553;28;20608;-91
2022/03/08 23:22:47;;;;;;;9.57;6.13;;;;;;;;;;5035203;28;20218;-92
2022/03/08 23:25:16;;;;;;;7.77;5.40;;;;;;;;;;5034930;28;20276;-91
2022/03/08 23:27:43;;;;;;;9.57;5.37;;;;;;;;;;5034982;28;20230;-93
2022/03/08 23:30:12;;;;;;;7.07;4.87;;;;;;;;;;5035242;28;20218;-92
2022/03/08 23:32:39;;;;;;;7.10;5.27;;;;;;;;;;5034825;28;20297;-90
2022/03/08 23:35:07;;;;;;;9.43;5.33;;;;;;;;;;5035009;28;20211;-91
2022/03/08 23:37:34;;;;;;;12.27;6.37;;;;;;;;;;5034246;28;20284;-92
2022/03/08 23:40:02;;;;;;;12.03;6.37;;;;;;;;;;5034772;28;20261;-93
2022/03/08 23:42:30;;;;;;;7.10;5.23;;;;;;;;;;5034835;28;20207;-91
2022/03/08 23:44:58;;;;;;;8.67;5.50;;;;;;;;;;5034367;28;20758;-92
2022/03/08 23:47:25;;;;;;;10.73;5.07;;;;;;;;;;5034539;28;20700;-91
2022/03/08 23:49:52;;;;;;;10.73;5.93;;;;;;;;;;5035041;28;20215;-91
2022/03/08 23:52:20;;;;;;;10.03;6.03;;;;;;;;;;5034762;28;20210;-92
2022/03/08 23:54:47;;;;;;;9.50;5.60;;;;;;;;;;5034915;28;20199;-92
2022/03/08 23:57:14;;;;;;;10.13;6.10;;;;;;;;;;5033432;28;20242;-94
2022/03/08 23:59:43;;;;;;;9.33;5.40;;;;;;;;;;5031671;28;20218;-93
